Las Vegas, Nevada
Traffic Map
Current Weather Conditions
Las Vegas, Nevada
Broken Clouds
Broken Clouds
113°
Feels Like: 113°
Wind Chill: 113° Ceiling: 25000
Heat Index: 113° Visibility: 10mi
Dew Point: 33° Wind: 0mph
Humidity: 7% Direction: ° ()
Pressure: 29.74in Gusts: 0mph
Raw Report DataKLAS 282356Z 00000KT 10SM FEW120 SCT170 BKN250 45/01 A2974 RMK AO2 SLP032 T04500006 10461 20394 56021
Traffic Incident Summary
Active as of:
Severity:
Category:
InformationThere was an issue retrieving the traffic information for this location. Please try a different location or try again shortly.
Advertisements
Track Severe Weather on mobile